Halesite, New York
Current Conditions -  °F | °C
As of 7:53 PM on Friday 28 Nov 2014 (Local Time) from KFRG Reporting Station
Clear Clear  
Wind Chill: -6°   Ceiling: Unl
Heat Index: -1°   Visibility: 10mi
Dew Point: -11°   Wind: 12mph
Humidity: 46%   Direction: 320°NW
Pressure: 30.24"   Gusts: NA
Location:  40.8966°N, 73.4362°W
Report Text: KFRG 290053Z 32010KT 10SM CLR M01/M11 A3024 RMK AO2 SLP240 T10061111
Loading
Personal Weather Stations






























Interactive Weather Map New forecast layout! Learn more

10-Day Weather Forecast

Advertisements
Track Severe Weather on mobile